createdAt,value
2019-02-24T00:03:30.749Z,7.10
2019-02-24T00:07:35.488Z,6.08
2019-02-24T00:11:40.376Z,6.90
2019-02-24T00:15:45.272Z,8.40
2019-02-24T00:19:50.435Z,10.05
2019-02-24T00:23:55.261Z,6.15
2019-02-24T00:28:06.921Z,9.28
2019-02-24T00:32:06.667Z,9.65
2019-02-24T00:36:11.829Z,5.78
2019-02-24T00:40:16.855Z,9.00
2019-02-24T00:44:22.900Z,6.97
2019-02-24T00:48:27.712Z,8.85
2019-02-24T00:52:33.132Z,9.23
2019-02-24T00:56:38.103Z,6.42
2019-02-24T01:00:43.083Z,13.35
2019-02-24T01:04:47.967Z,8.68
2019-02-24T01:08:52.763Z,7.87
2019-02-24T01:12:57.964Z,6.37
2019-02-24T01:17:02.860Z,6.08
2019-02-24T01:21:07.955Z,6.25
2019-02-24T01:25:12.843Z,8.98
2019-02-24T01:29:18.544Z,7.83
2019-02-24T01:33:23.434Z,8.88
2019-02-24T01:37:28.256Z,5.92
2019-02-24T01:41:33.403Z,4.83
2019-02-24T01:45:38.320Z,6.85
2019-02-24T01:49:43.315Z,5.67
2019-02-24T01:53:48.183Z,6.60
2019-02-24T01:57:53.083Z,7.17
2019-02-24T02:01:58.275Z,7.33
2019-02-24T02:06:03.099Z,6.80
2019-02-24T02:10:08.460Z,6.35
2019-02-24T02:14:13.275Z,6.90
2019-02-24T02:18:18.032Z,7.83
2019-02-24T02:22:22.952Z,5.45
2019-02-24T02:26:27.843Z,5.72
2019-02-24T02:30:33.301Z,5.40
2019-02-24T02:34:38.209Z,7.10
2019-02-24T02:38:43.105Z,7.92
2019-02-24T02:42:48.093Z,7.62
2019-02-24T02:46:53.246Z,7.35
2019-02-24T02:50:58.363Z,7.25
2019-02-24T02:55:03.532Z,6.60
2019-02-24T02:59:08.709Z,5.97
2019-02-24T03:03:13.756Z,6.22
2019-02-24T03:07:26.748Z,6.62
2019-02-24T03:11:31.822Z,8.75
2019-02-24T03:15:36.633Z,7.00
2019-02-24T03:19:41.815Z,8.98
2019-02-24T03:23:46.568Z,8.80
2019-02-24T03:27:51.460Z,9.33
2019-02-24T03:31:56.233Z,9.15
2019-02-24T03:36:00.975Z,11.05
2019-02-24T03:40:07.622Z,6.47
2019-02-24T03:44:12.586Z,6.53
2019-02-24T03:48:17.400Z,8.08
2019-02-24T03:52:22.336Z,7.97
2019-02-24T03:56:27.435Z,11.48
2019-02-24T04:00:32.363Z,7.20
2019-02-24T04:04:37.351Z,5.42
2019-02-24T04:08:42.106Z,6.03
2019-02-24T04:12:47.241Z,7.15
2019-02-24T04:16:53.020Z,6.85
2019-02-24T04:20:58.004Z,7.37
2019-02-24T04:25:02.943Z,5.92
2019-02-24T04:29:07.875Z,6.62
2019-02-24T04:33:12.961Z,7.42
2019-02-24T04:37:17.776Z,6.20
2019-02-24T04:41:23.134Z,8.08
2019-02-24T04:45:28.079Z,5.90
2019-02-24T04:49:32.861Z,5.50
2019-02-24T04:53:38.782Z,7.25
2019-02-24T04:57:43.524Z,7.55
2019-02-24T05:01:48.616Z,5.45
2019-02-24T05:05:53.415Z,5.33
2019-02-24T05:09:58.314Z,5.45
2019-02-24T05:14:03.204Z,6.70
2019-02-24T05:18:08.465Z,7.92
2019-02-24T05:22:13.737Z,5.37
2019-02-24T05:26:18.498Z,6.83
2019-02-24T05:30:23.459Z,7.62
2019-02-24T05:34:28.378Z,9.45
2019-02-24T05:38:33.400Z,7.00
2019-02-24T05:42:38.174Z,7.22
2019-02-24T05:46:43.002Z,7.78
2019-02-24T05:50:47.843Z,9.20
2019-02-24T05:54:52.575Z,6.35
2019-02-24T05:58:57.326Z,9.78
2019-02-24T06:03:02.111Z,6.37
2019-02-24T06:07:06.915Z,8.60
2019-02-24T06:11:11.800Z,8.63
2019-02-24T06:15:16.676Z,6.72
2019-02-24T06:19:21.477Z,7.72
2019-02-24T06:23:26.431Z,7.65
2019-02-24T06:27:31.257Z,7.75
2019-02-24T06:31:36.376Z,10.95
2019-02-24T06:35:41.183Z,5.62
2019-02-24T06:39:46.489Z,5.72
2019-02-24T06:43:51.408Z,5.95
2019-02-24T06:47:56.236Z,6.15
2019-02-24T06:52:01.338Z,7.58
2019-02-24T06:56:06.125Z,8.25
2019-02-24T07:00:14.348Z,8.38
2019-02-24T07:04:18.951Z,5.70
2019-02-24T07:08:23.831Z,8.90
2019-02-24T07:12:28.647Z,8.53
2019-02-24T07:16:33.487Z,7.75
2019-02-24T07:20:38.447Z,6.87
2019-02-24T07:24:43.283Z,7.95
2019-02-24T07:28:48.088Z,6.30
2019-02-24T07:32:54.049Z,8.03
2019-02-24T07:36:58.785Z,7.33
2019-02-24T07:41:03.848Z,10.03
2019-02-24T07:45:08.793Z,8.30
2019-02-24T07:49:14.499Z,7.15
2019-02-24T07:53:19.576Z,7.75
2019-02-24T07:57:24.403Z,5.67
2019-02-24T08:01:29.203Z,8.25
2019-02-24T08:05:34.083Z,7.47
2019-02-24T08:09:39.021Z,4.95
2019-02-24T08:13:44.145Z,8.55
2019-02-24T08:17:49.618Z,5.92
2019-02-24T08:21:54.592Z,5.75
2019-02-24T08:25:59.465Z,6.53
2019-02-24T08:30:05.226Z,7.72
2019-02-24T08:34:10.233Z,13.90
2019-02-24T08:38:15.044Z,6.50
2019-02-24T08:42:20.193Z,8.00
2019-02-24T08:46:25.031Z,7.58
2019-02-24T08:50:30.128Z,8.13
2019-02-24T08:54:34.936Z,7.65
2019-02-24T08:58:39.677Z,10.23
2019-02-24T09:02:44.468Z,6.65
2019-02-24T09:06:49.191Z,9.98
2019-02-24T09:10:54.235Z,9.43
2019-02-24T09:14:58.972Z,8.43
2019-02-24T09:19:03.859Z,11.38
2019-02-24T09:23:09.007Z,11.08
2019-02-24T09:27:13.727Z,6.90
2019-02-24T09:31:18.847Z,10.18
2019-02-24T09:35:23.668Z,8.68
2019-02-24T09:39:28.576Z,11.05
2019-02-24T09:43:33.705Z,10.03
2019-02-24T09:47:46.301Z,13.43
2019-02-24T09:51:45.573Z,8.30
2019-02-24T09:55:51.683Z,9.85
2019-02-24T09:59:56.644Z,7.50
2019-02-24T10:04:01.536Z,7.12
2019-02-24T10:08:08.112Z,8.98
2019-02-24T10:12:13.285Z,7.90
2019-02-24T10:16:18.091Z,7.67
2019-02-24T10:20:24.067Z,10.90
2019-02-24T10:24:28.944Z,9.08
2019-02-24T10:28:33.764Z,11.05
2019-02-24T10:32:38.811Z,7.60
2019-02-24T10:36:43.668Z,7.58
2019-02-24T10:40:48.791Z,11.20
2019-02-24T10:44:53.698Z,6.90
2019-02-24T10:49:03.435Z,7.85
2019-02-24T10:53:05.888Z,11.95
2019-02-24T10:57:12.961Z,7.30
2019-02-24T11:01:17.208Z,6.92
2019-02-24T11:05:22.093Z,7.08
2019-02-24T11:09:26.832Z,8.13
2019-02-24T11:13:31.617Z,7.22
2019-02-24T11:17:36.431Z,7.28
2019-02-24T11:21:42.075Z,7.08
2019-02-24T11:25:54.837Z,9.10
2019-02-24T11:30:10.923Z,8.10
2019-02-24T11:34:20.431Z,8.05
2019-02-24T11:38:28.153Z,8.35
2019-02-24T11:42:35.907Z,11.35
2019-02-24T11:46:49.789Z,7.80
2019-02-24T11:51:00.138Z,6.55
2019-02-24T11:55:07.566Z,8.88
2019-02-24T11:59:14.098Z,6.85
2019-02-24T12:03:22.023Z,9.10
2019-02-24T12:07:26.814Z,8.30
2019-02-24T12:11:32.720Z,7.50
2019-02-24T12:15:37.751Z,6.75
2019-02-24T12:19:42.568Z,8.43
2019-02-24T12:23:47.641Z,8.48
2019-02-24T12:27:53.134Z,8.33
2019-02-24T12:32:13.927Z,9.13
2019-02-24T12:36:19.080Z,6.20
2019-02-24T12:40:24.012Z,9.20
2019-02-24T12:44:28.893Z,8.65
2019-02-24T12:48:33.708Z,9.35
2019-02-24T12:52:38.808Z,7.78
2019-02-24T12:56:43.702Z,6.55
2019-02-24T13:00:48.885Z,11.50
2019-02-24T13:04:53.780Z,10.43
2019-02-24T13:08:58.525Z,7.62
2019-02-24T13:13:03.484Z,22.20
2019-02-24T13:17:10.208Z,45.35
2019-02-24T13:21:17.748Z,82.05
2019-02-24T13:25:22.941Z,19.27
2019-02-24T13:29:27.850Z,15.95
2019-02-24T13:33:32.747Z,12.75
2019-02-24T13:37:37.643Z,10.68
2019-02-24T13:41:42.704Z,14.85
2019-02-24T13:45:48.811Z,8.20
2019-02-24T13:49:53.637Z,8.25
2019-02-24T13:53:58.480Z,8.18
2019-02-24T13:58:03.371Z,7.97
2019-02-24T14:02:08.559Z,6.80
2019-02-24T14:06:13.380Z,9.53
2019-02-24T14:10:18.610Z,9.38
2019-02-24T14:14:23.416Z,7.50
2019-02-24T14:18:28.232Z,6.90
2019-02-24T14:22:33.727Z,7.83
2019-02-24T14:26:38.535Z,7.67
2019-02-24T14:30:43.619Z,7.28
2019-02-24T14:34:50.442Z,8.88
2019-02-24T14:38:57.273Z,7.58
2019-02-24T14:43:07.497Z,7.05
2019-02-24T14:47:14.365Z,6.28
2019-02-24T14:51:19.557Z,5.60
2019-02-24T14:55:24.687Z,6.42
2019-02-24T14:59:29.787Z,7.15
2019-02-24T15:03:34.617Z,5.47
2019-02-24T15:07:39.421Z,5.87
2019-02-24T15:11:44.605Z,4.30
2019-02-24T15:15:49.415Z,4.08
2019-02-24T15:19:54.275Z,5.17
2019-02-24T15:23:59.151Z,8.18
2019-02-24T15:28:04.048Z,6.47
2019-02-24T15:32:09.058Z,6.97
2019-02-24T15:36:13.941Z,5.15
2019-02-24T15:40:18.811Z,5.78
2019-02-24T15:44:23.656Z,3.85
2019-02-24T15:48:28.577Z,3.98
2019-02-24T15:52:33.691Z,5.75
2019-02-24T15:56:38.547Z,16.60
2019-02-24T16:00:43.632Z,7.75
2019-02-24T16:04:49.559Z,8.70
2019-02-24T16:08:54.419Z,4.47
2019-02-24T16:12:59.358Z,5.15
2019-02-24T16:17:04.244Z,8.15
2019-02-24T16:21:09.354Z,5.03
2019-02-24T16:25:14.250Z,5.33
2019-02-24T16:29:19.146Z,4.37
2019-02-24T16:33:24.147Z,7.53
2019-02-24T16:37:29.029Z,13.20
2019-02-24T16:41:33.949Z,11.00
2019-02-24T16:45:38.838Z,8.68
2019-02-24T16:49:43.929Z,8.95
2019-02-24T16:53:49.010Z,8.68
2019-02-24T16:57:54.102Z,9.43
2019-02-24T17:01:59.016Z,13.72
2019-02-24T17:06:03.920Z,9.98
2019-02-24T17:10:10.752Z,11.35
2019-02-24T17:14:15.721Z,13.85
2019-02-24T17:18:20.757Z,8.90
2019-02-24T17:27:00.379Z,8.73
2019-02-24T17:31:07.026Z,12.68
2019-02-24T17:35:13.680Z,12.85
2019-02-24T17:39:18.742Z,11.80
2019-02-24T17:43:23.552Z,12.73
2019-02-24T17:47:28.375Z,10.35
2019-02-24T17:51:33.332Z,11.43
2019-02-24T17:55:38.224Z,9.93
2019-02-24T17:59:43.631Z,13.28
2019-02-24T18:03:48.439Z,14.60
2019-02-24T18:07:53.264Z,15.05
2019-02-24T18:11:58.317Z,13.90
2019-02-24T18:16:03.207Z,16.87
2019-02-24T18:20:09.379Z,14.90
2019-02-24T18:24:14.195Z,16.87
2019-02-24T18:28:19.111Z,14.53
2019-02-24T18:32:24.177Z,15.88
2019-02-24T18:36:29.449Z,18.12
2019-02-24T18:40:34.595Z,26.57
2019-02-24T18:44:39.387Z,15.68
2019-02-24T18:48:44.214Z,14.35
2019-02-24T18:52:49.095Z,17.25
2019-02-24T18:56:53.903Z,17.37
2019-02-24T19:00:58.842Z,18.30
2019-02-24T19:05:03.670Z,16.10
2019-02-24T19:09:08.551Z,15.10
2019-02-24T19:13:13.929Z,18.48
2019-02-24T19:17:18.812Z,19.25
2019-02-24T19:21:23.843Z,12.47
2019-02-24T19:25:28.737Z,17.25
2019-02-24T19:29:33.601Z,17.67
2019-02-24T19:33:39.400Z,37.40
2019-02-24T19:37:44.916Z,14.30
2019-02-24T19:41:50.057Z,20.08
2019-02-24T19:45:55.208Z,14.10
2019-02-24T19:50:00.257Z,14.65
2019-02-24T19:54:05.353Z,18.82
2019-02-24T19:58:10.178Z,17.52
2019-02-24T20:02:15.050Z,20.80
2019-02-24T20:06:19.949Z,18.55
2019-02-24T20:10:26.579Z,16.00
2019-02-24T20:14:32.259Z,17.42
2019-02-24T20:18:37.033Z,16.07
2019-02-24T20:22:42.132Z,16.12
2019-02-24T20:26:47.019Z,15.93
2019-02-24T20:30:53.076Z,18.67
2019-02-24T20:34:57.907Z,18.17
2019-02-24T20:39:02.828Z,17.62
2019-02-24T20:43:09.308Z,14.85
2019-02-24T20:47:14.223Z,16.62
2019-02-24T20:51:19.223Z,18.55
2019-02-24T20:55:24.411Z,35.58
2019-02-24T20:59:29.290Z,16.60
2019-02-24T21:03:34.013Z,17.40
2019-02-24T21:07:39.063Z,19.40
2019-02-24T21:11:45.112Z,16.65
2019-02-24T21:15:50.224Z,16.52
2019-02-24T21:19:55.616Z,22.27
2019-02-24T21:24:00.604Z,18.12
2019-02-24T21:28:05.512Z,18.87
2019-02-24T21:32:11.296Z,18.60
2019-02-24T21:36:16.420Z,16.97
2019-02-24T21:40:23.468Z,17.15
2019-02-24T21:44:29.163Z,12.28
2019-02-24T21:48:34.037Z,18.45
2019-02-24T21:52:38.891Z,23.45
2019-02-24T21:56:43.701Z,18.60
2019-02-24T22:00:48.644Z,18.77
2019-02-24T22:04:53.452Z,16.70
2019-02-24T22:09:00.286Z,14.93
2019-02-24T22:13:05.413Z,15.15
2019-02-24T22:17:10.216Z,15.13
2019-02-24T22:21:15.328Z,17.90
2019-02-24T22:25:20.252Z,14.98
2019-02-24T22:29:25.055Z,17.80
2019-02-24T22:33:29.839Z,16.30
2019-02-24T22:37:34.723Z,17.55
2019-02-24T22:41:40.985Z,18.17
2019-02-24T22:45:45.811Z,13.10
2019-02-24T22:49:50.665Z,17.15
2019-02-24T22:53:55.464Z,16.55
2019-02-24T22:58:00.347Z,9.83
2019-02-24T23:02:05.974Z,14.75
2019-02-24T23:06:11.228Z,12.73
2019-02-24T23:10:16.220Z,15.30
2019-02-24T23:14:21.067Z,12.50
2019-02-24T23:18:25.872Z,15.15
2019-02-24T23:22:31.255Z,13.48
2019-02-24T23:26:35.997Z,17.45
2019-02-24T23:30:41.056Z,13.65
2019-02-24T23:34:46.868Z,15.45
2019-02-24T23:38:51.676Z,15.25
2019-02-24T23:42:56.735Z,14.58
2019-02-24T23:47:01.499Z,15.65
2019-02-24T23:51:06.489Z,15.68
2019-02-24T23:55:11.933Z,20.12
2019-02-24T23:59:16.700Z,15.32
